Airfield :







YOU CAN JOIN US ON...

 
LOGIN :

Register | Disclaimer

   EN    FR    IT 

 









Legend :    VFR   Marginal VFR   IFR   Intensive IFR   Very Intensive IFR
Visi :
Ceiling :
>= 8 km
>= 3000ft
5 to 8 km
1000 to 3000 ft
1500m to 5 km
500 to 1000 ft
800 to 1500m
200 to 500 ft
< 800m
< 200 ft
Symbols :   Thunderstorms  Fog  Heavy snow  Heavy precipitations  Wind > 20 kt






- Airport Elevation : 357 ft
- IATA code : YSJ


CYSJ - Saint John

CURRENT METAR :
  • 291400Z 34013G21KT 15SM FEW015 M08/M14 A2982 RMK SC1 SC TR SLP105

EXPIRED METARs :
  • 291300Z 32011G16KT 15SM FEW015 M09/M12 A2981 RMK SC1 SC TR SLP102
  • 291200Z 34011G18KT 15SM FEW011 M09/M11 A2979 RMK SC1 SLP097

TAF TAF CYSJ
Valid from the 29 at 12:00 until the 30 at 00:00 UTC


291138Z 2912/2924 33012KT P6SM BKN008
TEMPO 2912/2914 SCT008
FM291400 34012KT P6SM FEW030 RMK NXT FCST BY 291800Z



MET'MAP, your aeronautical weather chart ! - Copyright ORBIFLY December 2007 - Disclaimer

ORBIFLY MET'MAP TEAM :

Programming & Development : Alexandra Zaïnal
Concept & original design : Baudouin d'Aumeries
Assistance for programming : Marc-Olivier Méhu
Technical & hardware support : Manuel Goepfert

Contact : metmap@orbifly.com




SOURCES & CREDITS :

   NOAA